Flight Track Log - Related Links

Times and Time Zones

All times are in EDT time to prevent confusion due to time zone crossing. See the SKW5625 flight status page for this flight to view local times or setup timezone preferences in your user account.

Time Position Orientation Groundspeed Altitude Reporting Facility
EDT Latitude Longitude Course Direction KTS MPH feet Rate Location/Type
Thu 01:13:17 PM 42.4375 -122.8386 33° Northeast 169 194 4,100  Level Seattle Center
Thu 01:14:18 PM 42.4461 -122.7861 77° East 188 216 6,000 1,623 Climbing Seattle Center
Thu 01:15:00 PM 42.1573 -122.9000 180° South  Level FlightAware Approximate
Thu 01:15:19 PM 42.3967 -122.7944 187° South 183 211 7,400  Level Seattle Center
Thu 01:16:00 PM 42.0850 -122.9000 180° South  Level FlightAware Approximate
Thu 01:16:20 PM 42.3422 -122.8089 191° South 193 222 9,000  Level Seattle Center
Thu 01:17:00 PM 42.0159 -122.9000 180° South  Level FlightAware Approximate
Thu 01:17:21 PM 42.2875 -122.8194 188° South 195 224 10,800  Level Seattle Center
Thu 01:18:22 PM 42.2361 -122.8286 188° South 190 219 12,300 1,339 Climbing Seattle Center
Thu 01:19:22 PM 42.1822 -122.8247 177° South 191 220 13,500 1,289 Climbing Seattle Center
Thu 01:20:23 PM 42.1244 -122.8242 180° South 194 223 14,900 1,180 Climbing Seattle Center
Thu 01:21:24 PM 42.0722 -122.8239 180° South 188 216 15,900 787 Climbing Seattle Center
Thu 01:22:25 PM 42.0194 -122.8256 181° South 188 216 16,500 639 Climbing Seattle Center
Thu 01:23:26 PM 41.9603 -122.8269 181° South 210 242 17,200 689 Climbing Seattle Center
Thu 01:24:27 PM 41.9031 -122.8278 181° South 207 238 17,900 738 Climbing Seattle Center
Thu 01:25:28 PM 41.8422 -122.8297 181° South 206 237 18,700 738 Climbing Seattle Center
Thu 01:26:29 PM 41.7850 -122.8289 179° South 207 238 19,400 689 Climbing Seattle Center
Thu 01:27:30 PM 41.7261 -122.8300 181° South 209 241 20,100 645 Climbing Seattle Center
Thu 01:28:30 PM 41.6675 -122.8322 182° South 210 242 20,700 496 Climbing Seattle Center
Thu 01:29:31 PM 41.6081 -122.8319 180° South 212 244 21,100 492 Climbing Seattle Center
Thu 01:30:32 PM 41.5483 -122.8331 181° South 214 246 21,700 541 Climbing Seattle Center
Thu 01:31:33 PM 41.4900 -122.8331 180° South 214 246 22,200 492 Climbing Seattle Center
Thu 01:32:34 PM 41.4303 -122.8339 181° South 213 245 22,700 492 Climbing Seattle Center
Thu 01:33:35 PM 41.3667 -122.8361 182° South 213 245 23,200 443 Climbing Seattle Center
Thu 01:34:36 PM 41.3075 -122.8356 180° South 213 245 23,600 397 Climbing Seattle Center
Thu 01:35:36 PM 41.2469 -122.8369 181° South 213 245 24,000 397 Climbing Seattle Center
Thu 01:36:37 PM 41.1867 -122.8369 180° South 214 246 24,400 393 Climbing Seattle Center
Thu 01:37:38 PM 41.1261 -122.8383 181° South 215 247 24,800 371 Climbing Seattle Center
Thu 01:38:14 PM 41.0886 -122.8400 182° South 217 250 25,000 122 Climbing Oakland Center
Thu 01:39:16 PM 41.0269 -122.8389 179° South 219 252 25,000  Level Oakland Center
Thu 01:40:18 PM 40.9639 -122.8406 181° South 223 257 25,000  Level Oakland Center
Thu 01:41:19 PM 40.8989 -122.8433 182° South 229 264 25,000  Level Oakland Center
Thu 01:42:21 PM 40.8189 -122.8433 180° South 236 272 25,000  Level Oakland Center
Thu 01:43:22 PM 40.7536 -122.8431 180° South 236 272 25,000  Level Oakland Center
Thu 01:44:24 PM 40.6892 -122.8442 181° South 235 270 25,000  Level Oakland Center
Thu 01:45:26 PM 40.6217 -122.8439 180° South 236 272 25,000  Level Oakland Center
Thu 01:46:28 PM 40.5547 -122.8456 181° South 238 274 25,000  Level Oakland Center
Thu 01:47:29 PM 40.4875 -122.8464 181° South 240 276 25,000  Level Oakland Center
Thu 01:48:31 PM 40.4069 -122.8472 180° South 240 276 25,000  Level Oakland Center
Thu 01:49:33 PM 40.3403 -122.8475 180° South 240 276 25,000  Level Oakland Center
Thu 01:50:34 PM 40.2744 -122.8483 181° South 240 276 25,000  Level Oakland Center
Thu 01:51:36 PM 40.2067 -122.8486 180° South 243 280 25,000  Level Oakland Center
Thu 01:52:38 PM 40.1400 -122.8492 180° South 243 280 25,000  Level Oakland Center
Thu 01:53:39 PM 40.0728 -122.8508 181° South 243 280 25,000  Level Oakland Center
Thu 01:54:41 PM 39.9925 -122.8517 180° South 243 280 25,000  Level Oakland Center
Thu 01:55:43 PM 39.9256 -122.8514 180° South 243 280 25,000  Level Oakland Center
Thu 01:56:44 PM 39.8583 -122.8525 181° South 243 280 25,000  Level Oakland Center
Thu 01:57:46 PM 39.7914 -122.8517 179° South 243 280 25,000  Level Oakland Center
Thu 01:58:48 PM 39.7256 -122.8528 181° South 242 278 25,000  Level Oakland Center
Thu 01:59:49 PM 39.6597 -122.8533 180° South 239 275 25,000  Level Oakland Center
Thu 02:00:51 PM 39.5944 -122.8528 180° South 239 275 25,000  Level Oakland Center
Thu 02:01:53 PM 39.5142 -122.8553 181° South 240 276 25,000  Level Oakland Center
Thu 02:02:55 PM 39.4472 -122.8553 180° South 240 276 25,000  Level Oakland Center
Thu 02:03:56 PM 39.3800 -122.8561 181° South 241 277 25,000  Level Oakland Center
Thu 02:04:58 PM 39.3139 -122.8564 180° South 241 277 25,000  Level Oakland Center
Thu 02:06:00 PM 39.2469 -122.8572 181° South 240 276 25,000  Level Oakland Center
Thu 02:07:01 PM 39.1736 -122.8589 181° South 240 276 25,000  Level Oakland Center
Thu 02:08:03 PM 39.1069 -122.8589 180° South 239 275 25,000  Level Oakland Center
Thu 02:09:05 PM 39.0400 -122.8594 180° South 240 276 25,000 -488 Level Oakland Center
Thu 02:10:06 PM 38.9706 -122.8606 181° South 246 283 24,000 -1,171 Descending Oakland Center
Thu 02:11:08 PM 38.8869 -122.8636 182° South 263 303 22,600 -1,403 Descending Oakland Center
Thu 02:12:10 PM 38.8150 -122.8603 178° South 262 302 21,100 -1,463 Descending Oakland Center
Thu 02:13:11 PM 38.7419 -122.8619 181° South 262 302 19,600 -1,366 Descending Oakland Center
Thu 02:14:13 PM 38.6703 -122.8628 181° South 261 300 18,300 -1,210 Descending Oakland Center
Thu 02:15:15 PM 38.6014 -122.8633 180° South 253 291 17,100 -629 Descending Oakland Center
Thu 02:16:17 PM 38.5317 -122.8636 180° South 250 288 17,000 -49 Descending Oakland Center
Thu 02:17:18 PM 38.4506 -122.8658 181° South 248 285 17,000 -683 Level Oakland Center
Thu 02:18:20 PM 38.3817 -122.8664 180° South 246 283 15,600 -1,210 Descending Oakland Center
Thu 02:19:22 PM 38.3097 -122.8661 180° South 255 293 14,500 -1,065 Descending Oakland Center
Thu 02:20:24 PM 38.2389 -122.8656 180° South 256 295 13,400 -1,016 Descending Oakland Center
Thu 02:21:26 PM 38.1683 -122.8667 181° South 256 295 12,400 -968 Descending Oakland Center
Thu 02:22:28 PM 38.1011 -122.8681 181° South 248 285 11,400 -1,073 Descending Oakland Center
Thu 02:23:29 PM 38.0222 -122.8419 165° South 255 293 10,200 -1,073 Descending Oakland Center
Thu 02:24:31 PM 37.9569 -122.8136 161° South 250 288 9,200 -968 Descending Oakland Center
Thu 02:25:33 PM 37.8928 -122.7817 159° South 250 288 8,200 -919 Descending Oakland Center
Thu 02:26:35 PM 37.8322 -122.7408 152° Southeast 250 288 7,300 -774 Descending Oakland Center
Thu 02:27:37 PM 37.7731 -122.7011 152° Southeast 248 285 6,600 -1,122 Descending Oakland Center
Thu 02:28:38 PM 37.7075 -122.6414 144° Southeast 250 288 5,000 -1,220 Descending Oakland Center
Thu 02:29:40 PM 37.6603 -122.5778 133° Southeast 252 290 4,100 -484 Descending Oakland Center
Thu 02:30:42 PM 37.6158 -122.5161 132° Southeast 245 282 4,000 -48 Descending Oakland Center
Thu 02:31:44 PM 37.5731 -122.4558 132° Southeast 235 270 4,000  Level Oakland Center
Thu 02:32:46 PM 37.5436 -122.3839 117° Southeast 233 268 4,000  Level Oakland Center
Thu 02:33:47 PM 37.5208 -122.3117 112° Southeast 231 266 4,000  Level Oakland Center
Thu 02:34:49 PM 37.4897 -122.2336 117° Southeast 226 260 4,000  Level Oakland Center
Thu 02:35:51 PM 37.5225 -122.1833 51° Northeast 227 261 4,000 -439 Level Oakland Center
Thu 02:36:52 PM 37.5583 -122.2319 313° West 211 243 3,100 -1,073 Descending Oakland Center
Thu 02:37:54 PM 37.5808 -122.2869 297° West 193 222 1,800 -1,113 Descending Oakland Center
Thu 02:38:56 PM 37.5994 -122.3275 300° West 161 185 800 -732 Descending Oakland Center
Thu 02:39:57 PM 37.6150 -122.3689 295° West 142 163 300 -492 Descending Oakland Center
Thu 02:41:00 PM 37.6191 -122.3752 307° West  Level Estimated
Thu 02:48:00 PM 37.6167 -122.3667 307° West  Level FlightAware Approximate

Login

Don't have an account? Register now (free) for customized features, flight alerts, and more!